Time;durP1;ratioP1;P1;durP2;ratioP2;P2;SDS_P1;SDS_P2;PMS_P1;PMS_P2;Temp;Humidity;BMP_temperature;BMP_pressure;BME280_temperature;BME280_humidity;BME280_pressure;Samples;Min_cycle;Max_cycle;Signal;HPM_P1;HPM_P2
2023/05/18 00:01:18;;;;;;;17.23;5.67;;;;;;;;;;5067808;28;20283;-61
2023/05/18 00:03:44;;;;;;;15.23;6.43;;;;;;;;;;5067772;28;20060;-61
2023/05/18 00:06:10;;;;;;;16.67;4.80;;;;;;;;;;5067686;28;20041;-61
2023/05/18 00:08:37;;;;;;;10.47;4.50;;;;;;;;;;5067121;28;20332;-61
2023/05/18 00:11:04;;;;;;;16.23;5.23;;;;;;;;;;5069675;28;20279;-61
2023/05/18 00:13:30;;;;;;;17.80;4.83;;;;;;;;;;5071527;28;20131;-61
2023/05/18 00:15:56;;;;;;;17.90;5.00;;;;;;;;;;5071317;28;20287;-61
2023/05/18 00:18:23;;;;;;;10.60;5.60;;;;;;;;;;5071540;28;20286;-61
2023/05/18 00:20:59;;;;;;;13.47;4.83;;;;;;;;;;5071211;28;20362;-61
2023/05/18 00:23:28;;;;;;;12.00;4.90;;;;;;;;;;5071402;28;20357;-60
2023/05/18 00:25:54;;;;;;;16.50;5.30;;;;;;;;;;5071451;28;20584;-61
2023/05/18 00:28:20;;;;;;;18.00;5.80;;;;;;;;;;5071059;28;20930;-61
2023/05/18 00:30:47;;;;;;;14.10;5.33;;;;;;;;;;5070776;28;20391;-61
2023/05/18 00:33:13;;;;;;;15.33;5.97;;;;;;;;;;5071034;28;20807;-61
2023/05/18 00:35:39;;;;;;;20.60;5.67;;;;;;;;;;5071135;28;20305;-61
2023/05/18 00:38:05;;;;;;;15.13;5.80;;;;;;;;;;5071095;28;20336;-61
2023/05/18 00:40:31;;;;;;;20.03;6.13;;;;;;;;;;5071015;28;20135;-61
2023/05/18 00:42:57;;;;;;;14.50;5.43;;;;;;;;;;5070508;28;20429;-61
2023/05/18 00:45:23;;;;;;;20.73;6.53;;;;;;;;;;5070962;28;20040;-61
2023/05/18 00:47:49;;;;;;;20.33;5.47;;;;;;;;;;5070942;28;20618;-61
2023/05/18 00:50:15;;;;;;;16.67;5.43;;;;;;;;;;5070748;28;20326;-60
2023/05/18 00:52:42;;;;;;;14.57;5.37;;;;;;;;;;5071099;28;20051;-60
2023/05/18 00:55:11;;;;;;;15.53;5.27;;;;;;;;;;5070754;28;20286;-60
2023/05/18 00:57:37;;;;;;;17.13;5.30;;;;;;;;;;5070289;28;20329;-61
2023/05/18 01:00:06;;;;;;;19.20;5.33;;;;;;;;;;5070735;28;20691;-61
2023/05/18 01:02:32;;;;;;;14.60;5.27;;;;;;;;;;5070872;28;20290;-61
2023/05/18 01:04:59;;;;;;;18.47;6.00;;;;;;;;;;5070722;28;20780;-61
2023/05/18 01:07:25;;;;;;;11.53;5.50;;;;;;;;;;5070619;28;20356;-61
2023/05/18 01:09:52;;;;;;;14.10;6.07;;;;;;;;;;5070070;28;20283;-60
2023/05/18 01:12:24;;;;;;;14.07;5.57;;;;;;;;;;5070749;28;20412;-61
2023/05/18 01:14:58;;;;;;;16.00;6.40;;;;;;;;;;5070723;28;20354;-60
2023/05/18 01:17:24;;;;;;;17.93;6.70;;;;;;;;;;5070315;28;20630;-61
2023/05/18 01:20:07;;;;;;;22.33;6.50;;;;;;;;;;5069861;28;20653;-61
2023/05/18 01:22:45;;;;;;;16.85;5.93;;;;;;;;;;5069628;28;20299;-60
2023/05/18 01:25:35;;;;;;;21.23;6.27;;;;;;;;;;5070153;28;20044;-60
2023/05/18 01:28:05;;;;;;;25.20;6.47;;;;;;;;;;5067173;28;20317;-61
2023/05/18 01:30:32;;;;;;;17.53;6.97;;;;;;;;;;5070030;28;20294;-61
2023/05/18 01:32:59;;;;;;;15.30;6.80;;;;;;;;;;5070357;28;21319;-61
2023/05/18 01:35:25;;;;;;;22.90;6.90;;;;;;;;;;5069632;28;20356;-61
2023/05/18 01:37:51;;;;;;;18.30;6.00;;;;;;;;;;5070084;28;20285;-61
2023/05/18 01:40:17;;;;;;;14.60;6.47;;;;;;;;;;5069455;28;20287;-60
2023/05/18 01:42:46;;;;;;;18.53;6.77;;;;;;;;;;5069898;28;20041;-60
2023/05/18 01:45:21;;;;;;;21.27;6.53;;;;;;;;;;5069819;28;20283;-60
2023/05/18 01:47:48;;;;;;;18.43;7.03;;;;;;;;;;5069818;28;20287;-61
2023/05/18 01:50:16;;;;;;;18.83;8.07;;;;;;;;;;5069808;28;20739;-60
2023/05/18 01:52:44;;;;;;;14.20;6.90;;;;;;;;;;5069142;28;20360;-60
2023/05/18 01:55:11;;;;;;;25.43;7.20;;;;;;;;;;5069633;28;20328;-60
2023/05/18 01:57:38;;;;;;;26.07;8.17;;;;;;;;;;5069794;28;20283;-61
2023/05/18 02:00:06;;;;;;;21.83;7.97;;;;;;;;;;5069444;28;20295;-60
2023/05/18 02:02:33;;;;;;;24.57;7.67;;;;;;;;;;5068904;28;20286;-61
2023/05/18 02:04:59;;;;;;;16.63;6.87;;;;;;;;;;5069515;28;20287;-60
2023/05/18 02:07:25;;;;;;;21.23;8.73;;;;;;;;;;5069543;28;21346;-60
2023/05/18 02:09:51;;;;;;;23.63;7.90;;;;;;;;;;5069362;28;20291;-60
2023/05/18 02:12:17;;;;;;;21.43;8.03;;;;;;;;;;5069318;28;20290;-60
2023/05/18 02:14:43;;;;;;;21.63;8.03;;;;;;;;;;5068851;28;20780;-60
2023/05/18 02:17:10;;;;;;;22.00;7.17;;;;;;;;;;5069238;28;20337;-61
2023/05/18 02:19:37;;;;;;;25.47;6.93;;;;;;;;;;5069214;28;20283;-60
2023/05/18 02:22:05;;;;;;;15.87;6.93;;;;;;;;;;5069100;28;20283;-60
2023/05/18 02:24:31;;;;;;;26.10;7.53;;;;;;;;;;5068908;28;20661;-60
2023/05/18 02:26:58;;;;;;;17.60;7.17;;;;;;;;;;5069238;28;20335;-61
2023/05/18 02:29:24;;;;;;;17.17;7.70;;;;;;;;;;5068540;28;20279;-60
2023/05/18 02:31:50;;;;;;;19.63;7.37;;;;;;;;;;5068765;28;20679;-61
2023/05/18 02:34:17;;;;;;;16.43;7.00;;;;;;;;;;5068166;28;20306;-60
2023/05/18 02:36:44;;;;;;;17.37;7.80;;;;;;;;;;5068977;28;20654;-60
2023/05/18 02:39:11;;;;;;;18.33;7.20;;;;;;;;;;5068585;28;20329;-60
2023/05/18 02:41:37;;;;;;;19.07;7.27;;;;;;;;;;5068240;28;20649;-60
2023/05/18 02:44:04;;;;;;;23.23;7.90;;;;;;;;;;5069056;28;20672;-61
2023/05/18 02:46:30;;;;;;;17.30;7.43;;;;;;;;;;5068689;28;20336;-60
2023/05/18 02:48:57;;;;;;;18.33;7.07;;;;;;;;;;5068542;28;20295;-61
2023/05/18 02:51:23;;;;;;;22.03;7.77;;;;;;;;;;5068218;28;20282;-60
2023/05/18 02:53:50;;;;;;;27.83;7.70;;;;;;;;;;5068710;28;20044;-60
2023/05/18 02:56:16;;;;;;;23.00;7.97;;;;;;;;;;5068379;28;20051;-61
2023/05/18 02:58:42;;;;;;;15.17;7.53;;;;;;;;;;5068427;28;20543;-61
2023/05/18 03:01:10;;;;;;;15.73;7.57;;;;;;;;;;5068531;28;20330;-61
2023/05/18 03:03:37;;;;;;;19.73;6.80;;;;;;;;;;5067927;28;20684;-60
2023/05/18 03:06:04;;;;;;;21.37;7.43;;;;;;;;;;5068590;28;20653;-61
2023/05/18 03:08:31;;;;;;;18.50;6.60;;;;;;;;;;5068297;28;20287;-61
2023/05/18 03:10:57;;;;;;;19.27;6.87;;;;;;;;;;5068381;28;20286;-60
2023/05/18 03:13:24;;;;;;;16.70;7.67;;;;;;;;;;5068079;28;21092;-60
2023/05/18 03:15:50;;;;;;;22.20;8.03;;;;;;;;;;5068320;28;20856;-61
2023/05/18 03:18:18;;;;;;;16.40;7.07;;;;;;;;;;5068194;28;20412;-61
2023/05/18 03:20:44;;;;;;;18.27;6.77;;;;;;;;;;5068304;28;20283;-60
2023/05/18 03:23:10;;;;;;;18.83;6.87;;;;;;;;;;5067605;28;20306;-60
2023/05/18 03:25:36;;;;;;;18.57;7.70;;;;;;;;;;5068249;28;20332;-60
2023/05/18 03:28:05;;;;;;;24.10;8.20;;;;;;;;;;5067151;28;20641;-60
2023/05/18 03:30:32;;;;;;;26.57;9.90;;;;;;;;;;5068279;28;20282;-60
2023/05/18 03:32:58;;;;;;;17.23;8.03;;;;;;;;;;5068331;28;20290;-60
2023/05/18 03:35:25;;;;;;;23.93;8.70;;;;;;;;;;5067861;28;20769;-60
2023/05/18 03:37:51;;;;;;;21.43;8.30;;;;;;;;;;5067381;28;20833;-60
2023/05/18 03:40:17;;;;;;;24.90;9.30;;;;;;;;;;5068095;28;20307;-60
2023/05/18 03:42:43;;;;;;;22.60;8.40;;;;;;;;;;5067853;28;20375;-60
2023/05/18 03:45:10;;;;;;;20.67;8.03;;;;;;;;;;5068500;28;20879;-60
2023/05/18 03:47:36;;;;;;;21.83;8.20;;;;;;;;;;5074321;28;20318;-60
2023/05/18 03:50:03;;;;;;;21.77;8.40;;;;;;;;;;5074033;28;20339;-60
2023/05/18 03:52:29;;;;;;;18.00;8.20;;;;;;;;;;5073940;28;20638;-60
2023/05/18 03:54:56;;;;;;;20.47;9.17;;;;;;;;;;5074352;28;20282;-60
2023/05/18 03:57:22;;;;;;;17.80;7.50;;;;;;;;;;5074153;28;20278;-60
2023/05/18 03:59:48;;;;;;;15.30;7.03;;;;;;;;;;5072469;28;20336;-60
2023/05/18 04:02:15;;;;;;;21.87;9.13;;;;;;;;;;5074222;28;20758;-60
2023/05/18 04:04:44;;;;;;;32.33;8.97;;;;;;;;;;5074143;28;20056;-60
2023/05/18 04:07:11;;;;;;;27.83;8.50;;;;;;;;;;5074117;28;20278;-60
2023/05/18 04:09:38;;;;;;;22.40;9.27;;;;;;;;;;5073869;28;20095;-60
2023/05/18 04:12:04;;;;;;;20.60;8.57;;;;;;;;;;5074121;28;20045;-60
2023/05/18 04:14:34;;;;;;;20.00;7.87;;;;;;;;;;5073977;28;20049;-60
2023/05/18 04:17:04;;;;;;;18.90;8.97;;;;;;;;;;5073512;28;20286;-60
2023/05/18 04:19:38;;;;;;;24.83;8.73;;;;;;;;;;5074044;28;20283;-60
2023/05/18 04:22:06;;;;;;;20.90;8.67;;;;;;;;;;5074084;28;20294;-60
2023/05/18 04:24:33;;;;;;;19.77;9.33;;;;;;;;;;5073822;28;20401;-60
2023/05/18 04:27:00;;;;;;;18.97;9.10;;;;;;;;;;5073674;28;20052;-60
2023/05/18 04:29:27;;;;;;;23.33;7.73;;;;;;;;;;5073880;28;20499;-60
2023/05/18 04:31:59;;;;;;;21.97;9.63;;;;;;;;;;5073645;28;20286;-60
2023/05/18 04:34:26;;;;;;;22.30;9.17;;;;;;;;;;5073856;28;20052;-60
2023/05/18 04:36:57;;;;;;;22.03;8.70;;;;;;;;;;5073938;28;20569;-60
2023/05/18 04:39:24;;;;;;;17.70;8.67;;;;;;;;;;5073411;28;20532;-60
2023/05/18 04:41:56;;;;;;;20.13;9.00;;;;;;;;;;5073973;28;20198;-60
2023/05/18 04:44:24;;;;;;;19.60;9.07;;;;;;;;;;5074005;28;20394;-60
2023/05/18 04:46:51;;;;;;;17.93;9.27;;;;;;;;;;5073831;28;20127;-60
2023/05/18 04:49:20;;;;;;;15.97;8.30;;;;;;;;;;5073482;28;20422;-60
2023/05/18 04:51:48;;;;;;;19.53;8.00;;;;;;;;;;5073286;28;20059;-60
2023/05/18 04:54:15;;;;;;;26.83;9.93;;;;;;;;;;5073858;28;20044;-60
2023/05/18 04:56:41;;;;;;;22.67;8.37;;;;;;;;;;5071051;28;20040;-60
2023/05/18 04:59:10;;;;;;;23.37;7.93;;;;;;;;;;5070193;28;20445;-60
2023/05/18 05:01:36;;;;;;;24.20;10.20;;;;;;;;;;5069970;28;20460;-60
2023/05/18 05:04:02;;;;;;;27.27;9.67;;;;;;;;;;5070596;28;20419;-60
2023/05/18 05:06:28;;;;;;;16.37;8.93;;;;;;;;;;5070577;28;20066;-60
2023/05/18 05:08:54;;;;;;;27.30;9.70;;;;;;;;;;5070441;28;20041;-60
2023/05/18 05:11:20;;;;;;;16.00;8.00;;;;;;;;;;5070163;28;20049;-60
2023/05/18 05:13:46;;;;;;;22.63;9.57;;;;;;;;;;5069338;28;20533;-60
2023/05/18 05:16:12;;;;;;;21.40;9.43;;;;;;;;;;5069806;28;20048;-60
2023/05/18 05:18:39;;;;;;;25.40;9.73;;;;;;;;;;5070243;28;20424;-60
2023/05/18 05:21:05;;;;;;;21.53;9.43;;;;;;;;;;5070074;28;20047;-60
2023/05/18 05:23:31;;;;;;;25.97;9.70;;;;;;;;;;5069960;28;20047;-60
2023/05/18 05:25:57;;;;;;;27.23;10.63;;;;;;;;;;5070296;28;20045;-60
2023/05/18 05:28:23;;;;;;;31.00;11.37;;;;;;;;;;5069230;28;20589;-60
2023/05/18 05:30:49;;;;;;;19.67;9.37;;;;;;;;;;5070033;28;20044;-60
2023/05/18 05:33:15;;;;;;;16.70;8.83;;;;;;;;;;5069860;28;20058;-60
2023/05/18 05:35:41;;;;;;;27.93;9.67;;;;;;;;;;5069843;28;20083;-60
2023/05/18 05:38:07;;;;;;;19.43;10.07;;;;;;;;;;5070014;28;20041;-60
2023/05/18 05:40:33;;;;;;;27.93;11.20;;;;;;;;;;5069384;28;20572;-60
2023/05/18 05:42:59;;;;;;;20.83;8.80;;;;;;;;;;5069682;28;20087;-60
2023/05/18 05:45:27;;;;;;;21.17;9.37;;;;;;;;;;5069759;28;20040;-60
2023/05/18 05:47:53;;;;;;;21.57;9.40;;;;;;;;;;5069846;28;20084;-60
2023/05/18 05:50:19;;;;;;;18.63;8.57;;;;;;;;;;5069028;28;20063;-59
2023/05/18 05:52:45;;;;;;;13.70;6.70;;;;;;;;;;5069506;28;20165;-60
2023/05/18 05:55:11;;;;;;;13.77;6.73;;;;;;;;;;5069536;28;20510;-60
2023/05/18 05:57:41;;;;;;;15.03;5.63;;;;;;;;;;5069593;28;20117;-59
2023/05/18 06:00:09;;;;;;;8.90;4.13;;;;;;;;;;5069385;28;20052;-60
2023/05/18 06:02:35;;;;;;;14.83;5.43;;;;;;;;;;5069300;28;20367;-60
2023/05/18 06:05:01;;;;;;;11.83;4.40;;;;;;;;;;5068969;28;20427;-59
2023/05/18 06:07:27;;;;;;;11.50;3.10;;;;;;;;;;5069208;28;20048;-60
2023/05/18 06:09:53;;;;;;;14.10;3.43;;;;;;;;;;5068881;28;20048;-60
2023/05/18 06:12:19;;;;;;;21.83;4.83;;;;;;;;;;5068936;28;20036;-60
2023/05/18 06:14:46;;;;;;;9.23;2.90;;;;;;;;;;5068751;28;20044;-60
2023/05/18 06:17:12;;;;;;;14.77;3.87;;;;;;;;;;5068828;28;20036;-60
2023/05/18 06:19:38;;;;;;;11.90;4.23;;;;;;;;;;5069029;28;20045;-60
2023/05/18 06:22:04;;;;;;;10.63;2.77;;;;;;;;;;5068908;28;20055;-60
2023/05/18 06:24:30;;;;;;;10.27;2.90;;;;;;;;;;5068304;28;20051;-60
2023/05/18 06:26:56;;;;;;;13.90;2.93;;;;;;;;;;5068939;28;20425;-60
2023/05/18 06:29:22;;;;;;;10.17;2.80;;;;;;;;;;5068778;28;20067;-60
2023/05/18 06:31:48;;;;;;;10.60;2.93;;;;;;;;;;5068851;28;20048;-60
2023/05/18 06:34:15;;;;;;;9.70;2.20;;;;;;;;;;5068272;28;20117;-61
2023/05/18 06:36:41;;;;;;;8.20;2.13;;;;;;;;;;5068568;28;20048;-60
2023/05/18 06:39:07;;;;;;;8.97;1.90;;;;;;;;;;5068563;28;20044;-60
2023/05/18 06:41:33;;;;;;;11.63;2.33;;;;;;;;;;5068719;28;20044;-60
2023/05/18 06:44:00;;;;;;;9.03;2.60;;;;;;;;;;5068491;28;20067;-60
2023/05/18 06:46:27;;;;;;;8.93;2.13;;;;;;;;;;5067836;28;20439;-60
2023/05/18 06:48:53;;;;;;;8.07;2.03;;;;;;;;;;5068458;28;20051;-60
2023/05/18 06:51:20;;;;;;;5.10;1.57;;;;;;;;;;5068526;28;20054;-60
2023/05/18 06:53:46;;;;;;;5.90;1.90;;;;;;;;;;5068143;28;20123;-60
2023/05/18 06:56:12;;;;;;;10.37;2.27;;;;;;;;;;5067885;28;20048;-60
2023/05/18 06:58:39;;;;;;;7.03;2.70;;;;;;;;;;5068255;28;20074;-60
2023/05/18 07:01:05;;;;;;;9.37;2.07;;;;;;;;;;5067939;28;20056;-60
2023/05/18 07:03:31;;;;;;;7.57;1.70;;;;;;;;;;5067994;28;20373;-60
2023/05/18 07:05:57;;;;;;;10.73;1.73;;;;;;;;;;5068036;28;20104;-60
2023/05/18 07:08:24;;;;;;;7.43;1.93;;;;;;;;;;5068267;28;20044;-61
2023/05/18 07:10:50;;;;;;;8.47;1.70;;;;;;;;;;5068409;28;20057;-61
2023/05/18 07:13:17;;;;;;;5.57;1.27;;;;;;;;;;5067334;28;20418;-61
2023/05/18 07:15:43;;;;;;;5.20;1.90;;;;;;;;;;5068075;28;20040;-61
2023/05/18 07:18:09;;;;;;;13.83;2.10;;;;;;;;;;5068083;28;20123;-61
2023/05/18 07:20:35;;;;;;;6.10;1.70;;;;;;;;;;5067263;28;20036;-61
2023/05/18 07:23:01;;;;;;;6.37;1.60;;;;;;;;;;5067912;28;20059;-61
2023/05/18 07:25:28;;;;;;;9.13;1.93;;;;;;;;;;5067680;28;20094;-61
2023/05/18 07:27:54;;;;;;;7.10;1.93;;;;;;;;;;5067668;28;20059;-61
2023/05/18 07:30:25;;;;;;;6.30;1.47;;;;;;;;;;5067773;28;20063;-61
2023/05/18 07:32:51;;;;;;;7.33;1.70;;;;;;;;;;5066389;28;20063;-61
2023/05/18 07:35:20;;;;;;;8.43;1.67;;;;;;;;;;5067714;28;20056;-61
2023/05/18 07:37:47;;;;;;;10.83;2.43;;;;;;;;;;5067383;28;20045;-62
2023/05/18 07:40:13;;;;;;;7.07;1.70;;;;;;;;;;5067553;28;20414;-61
2023/05/18 07:42:39;;;;;;;10.03;2.10;;;;;;;;;;5067675;28;20052;-62
2023/05/18 07:45:07;;;;;;;6.63;2.00;;;;;;;;;;5067245;28;20510;-61
2023/05/18 07:47:33;;;;;;;7.93;1.87;;;;;;;;;;5067688;28;20049;-61
2023/05/18 07:49:59;;;;;;;7.87;1.50;;;;;;;;;;5067455;28;20037;-61
2023/05/18 07:52:25;;;;;;;6.10;1.53;;;;;;;;;;5066971;28;20533;-61
2023/05/18 07:54:52;;;;;;;7.70;1.87;;;;;;;;;;5067814;28;20415;-61
2023/05/18 07:57:18;;;;;;;8.47;1.70;;;;;;;;;;5067423;28;20049;-61
2023/05/18 07:59:44;;;;;;;7.27;2.27;;;;;;;;;;5067601;28;20054;-61
2023/05/18 08:02:10;;;;;;;9.97;2.20;;;;;;;;;;5066894;28;20151;-61
2023/05/18 08:04:36;;;;;;;8.60;2.10;;;;;;;;;;5067683;28;20139;-61
2023/05/18 08:07:03;;;;;;;5.03;1.53;;;;;;;;;;5067298;28;20059;-61
2023/05/18 08:09:29;;;;;;;7.97;2.00;;;;;;;;;;5067236;28;20084;-61
2023/05/18 08:11:57;;;;;;;13.33;2.23;;;;;;;;;;5067651;28;20048;-61
2023/05/18 08:14:23;;;;;;;6.37;2.10;;;;;;;;;;5067311;28;20410;-61
2023/05/18 08:16:49;;;;;;;13.57;2.40;;;;;;;;;;5066837;28;20086;-61
2023/05/18 08:19:15;;;;;;;8.03;2.20;;;;;;;;;;5067257;28;20440;-60
2023/05/18 08:21:42;;;;;;;6.67;1.73;;;;;;;;;;5067401;28;20048;-61
2023/05/18 08:24:08;;;;;;;8.73;2.10;;;;;;;;;;5067097;28;20125;-61
2023/05/18 08:26:35;;;;;;;8.77;1.90;;;;;;;;;;5067562;28;20068;-61
2023/05/18 08:29:08;;;;;;;7.30;1.77;;;;;;;;;;5066715;28;20390;-61
2023/05/18 08:31:34;;;;;;;8.07;2.42;;;;;;;;;;5067182;28;20102;-61
2023/05/18 08:34:00;;;;;;;7.87;1.97;;;;;;;;;;5070560;28;20676;-61
2023/05/18 08:36:26;;;;;;;7.27;1.83;;;;;;;;;;5070556;28;20503;-61
2023/05/18 08:38:52;;;;;;;9.87;2.10;;;;;;;;;;5070823;28;20048;-61
2023/05/18 08:41:27;;;;;;;7.67;2.20;;;;;;;;;;5071188;28;20051;-60
2023/05/18 08:43:59;;;;;;;6.57;1.70;;;;;;;;;;5071028;28;20443;-61
2023/05/18 08:46:28;;;;;;;6.90;2.00;;;;;;;;;;5070610;28;20048;-61
2023/05/18 08:48:54;;;;;;;6.10;1.67;;;;;;;;;;5070801;28;20506;-61
2023/05/18 08:51:21;;;;;;;7.93;2.43;;;;;;;;;;5070519;28;20354;-61
2023/05/18 08:53:51;;;;;;;9.97;2.40;;;;;;;;;;5070608;28;20064;-61
2023/05/18 08:56:18;;;;;;;5.57;1.70;;;;;;;;;;5070620;28;20048;-61
2023/05/18 08:58:47;;;;;;;7.73;1.70;;;;;;;;;;5070786;28;20464;-61
2023/05/18 09:01:13;;;;;;;9.40;2.30;;;;;;;;;;5070599;28;20044;-61
2023/05/18 09:03:40;;;;;;;4.50;1.53;;;;;;;;;;5070370;28;20495;-61
2023/05/18 09:06:06;;;;;;;6.83;1.77;;;;;;;;;;5069934;28;20070;-61
2023/05/18 09:08:33;;;;;;;7.23;1.70;;;;;;;;;;5070254;28;20091;-61
2023/05/18 09:11:01;;;;;;;5.90;1.90;;;;;;;;;;5070328;28;20051;-61
2023/05/18 09:13:27;;;;;;;8.87;1.80;;;;;;;;;;5070247;28;20072;-61
2023/05/18 09:15:53;;;;;;;5.77;2.13;;;;;;;;;;5070210;28;20048;-61
2023/05/18 09:18:19;;;;;;;7.97;2.03;;;;;;;;;;5069767;28;20418;-61
2023/05/18 09:20:45;;;;;;;5.80;1.90;;;;;;;;;;5070095;28;20051;-61
2023/05/18 09:23:11;;;;;;;7.57;1.83;;;;;;;;;;5069871;28;20055;-61
2023/05/18 09:25:41;;;;;;;4.17;1.60;;;;;;;;;;5069737;28;20051;-61
2023/05/18 09:28:07;;;;;;;6.73;2.43;;;;;;;;;;5069973;28;20445;-61
2023/05/18 09:30:39;;;;;;;12.27;2.40;;;;;;;;;;5069853;28;20048;-61
2023/05/18 09:33:05;;;;;;;7.67;1.53;;;;;;;;;;5069959;28;20092;-61
2023/05/18 09:35:33;;;;;;;7.20;1.80;;;;;;;;;;5069695;28;20156;-61
2023/05/18 09:38:03;;;;;;;7.43;1.60;;;;;;;;;;5069390;28;20052;-61
2023/05/18 09:40:29;;;;;;;9.70;2.10;;;;;;;;;;5069995;28;20385;-61
2023/05/18 09:42:55;;;;;;;4.80;1.57;;;;;;;;;;5069236;28;20036;-61
2023/05/18 09:45:27;;;;;;;7.00;1.63;;;;;;;;;;5069846;28;20048;-61
2023/05/18 09:47:53;;;;;;;7.57;2.03;;;;;;;;;;5069193;28;20474;-61
2023/05/18 09:50:19;;;;;;;7.10;1.77;;;;;;;;;;5069610;28;20055;-61
2023/05/18 09:52:48;;;;;;;5.57;1.83;;;;;;;;;;5070006;28;20044;-61
2023/05/18 09:55:17;;;;;;;6.93;2.30;;;;;;;;;;5069160;28;20044;-61
2023/05/18 09:57:47;;;;;;;4.90;1.90;;;;;;;;;;5069495;28;20036;-61
2023/05/18 10:00:17;;;;;;;4.67;1.37;;;;;;;;;;5068572;28;20055;-61
2023/05/18 10:02:49;;;;;;;9.50;2.10;;;;;;;;;;5069444;28;20052;-61
2023/05/18 10:05:19;;;;;;;9.63;1.70;;;;;;;;;;5069146;28;20108;-61
2023/05/18 10:07:45;;;;;;;6.73;1.80;;;;;;;;;;5069364;28;20093;-61
2023/05/18 10:10:11;;;;;;;7.73;1.80;;;;;;;;;;5069425;28;20044;-62
2023/05/18 10:12:40;;;;;;;7.00;1.87;;;;;;;;;;5068995;28;20380;-61
2023/05/18 10:15:10;;;;;;;7.27;1.87;;;;;;;;;;5068633;28;20051;-61
2023/05/18 10:17:38;;;;;;;5.00;1.50;;;;;;;;;;5068983;28;20560;-61
2023/05/18 10:20:09;;;;;;;6.63;1.67;;;;;;;;;;5068791;28;20041;-61
2023/05/18 10:22:36;;;;;;;4.90;1.80;;;;;;;;;;5068980;28;20123;-61
2023/05/18 10:25:05;;;;;;;5.83;2.10;;;;;;;;;;5068860;28;20052;-61
2023/05/18 10:27:34;;;;;;;5.83;1.80;;;;;;;;;;5068964;28;20509;-61
2023/05/18 10:30:02;;;;;;;5.37;1.90;;;;;;;;;;5068641;28;20206;-61
2023/05/18 10:32:29;;;;;;;11.90;3.07;;;;;;;;;;5068716;28;20560;-61
2023/05/18 10:34:56;;;;;;;8.73;2.07;;;;;;;;;;5068278;28;20485;-61
2023/05/18 10:37:23;;;;;;;10.13;2.37;;;;;;;;;;5068571;28;21212;-61
2023/05/18 10:39:54;;;;;;;9.87;2.73;;;;;;;;;;5068630;28;20411;-60
2023/05/18 10:42:21;;;;;;;6.77;1.83;;;;;;;;;;5067995;28;20055;-61
2023/05/18 10:44:47;;;;;;;9.30;2.07;;;;;;;;;;5068558;28;20045;-61
2023/05/18 10:47:14;;;;;;;7.20;2.00;;;;;;;;;;5068619;28;20479;-61
2023/05/18 10:49:42;;;;;;;7.60;2.58;;;;;;;;;;5067788;28;20052;-61
2023/05/18 10:52:08;;;;;;;11.93;2.50;;;;;;;;;;5068303;28;20040;-61
2023/05/18 10:54:34;;;;;;;7.20;1.88;;;;;;;;;;5067938;28;20045;-61
2023/05/18 10:57:01;;;;;;;5.82;1.85;;;;;;;;;;5067767;28;20048;-61
2023/05/18 10:59:27;;;;;;;7.78;1.90;;;;;;;;;;5068470;28;20080;-61
2023/05/18 11:01:55;;;;;;;6.05;2.42;;;;;;;;;;5067569;28;20449;-61
2023/05/18 11:04:31;;;;;;;11.43;2.13;;;;;;;;;;5068181;28;20055;-61
2023/05/18 11:06:58;;;;;;;8.73;2.37;;;;;;;;;;5068123;28;20051;-61
2023/05/18 11:09:25;;;;;;;7.63;2.17;;;;;;;;;;5067892;28;20056;-61
2023/05/18 11:11:56;;;;;;;6.40;2.00;;;;;;;;;;5067657;28;20076;-60
2023/05/18 11:14:29;;;;;;;11.00;2.25;;;;;;;;;;5068589;28;20052;-61
2023/05/18 11:17:16;;;;;;;6.90;1.88;;;;;;;;;;5068126;28;20067;-61
2023/05/18 11:20:06;;;;;;;7.80;1.95;;;;;;;;;;5064259;28;20056;-61
2023/05/18 11:22:51;;;;;;;7.93;2.10;;;;;;;;;;5064710;28;20103;-61
2023/05/18 11:25:35;;;;;;;10.25;2.58;;;;;;;;;;5067441;28;20131;-61
2023/05/18 11:28:04;;;;;;;6.50;1.90;;;;;;;;;;5068005;28;20048;-60
2023/05/18 11:30:34;;;;;;;6.28;2.30;;;;;;;;;;5067628;28;20048;-61
2023/05/18 11:33:10;;;;;;;5.78;2.17;;;;;;;;;;5067139;28;20064;-61
2023/05/18 11:35:54;;;;;;;8.32;2.67;;;;;;;;;;5067880;28;20114;-61
2023/05/18 11:38:20;;;;;;;5.63;2.20;;;;;;;;;;5067952;28;20052;-61
2023/05/18 11:40:48;;;;;;;6.07;2.05;;;;;;;;;;5067585;28;20040;-60
2023/05/18 11:43:20;;;;;;;9.02;2.78;;;;;;;;;;5067416;28;20040;-60
2023/05/18 11:45:46;;;;;;;;;;;;;;;;;;5067995;28;20518;-60
2023/05/18 11:48:12;;;;;;;6.35;2.10;;;;;;;;;;5067564;28;19920;-62
2023/05/18 11:50:45;;;;;;;7.65;2.20;;;;;;;;;;5067838;28;20048;-62
2023/05/18 11:53:16;;;;;;;7.10;2.45;;;;;;;;;;5067482;28;20054;-61
2023/05/18 11:55:42;;;;;;;6.97;2.22;;;;;;;;;;5067524;28;20051;-61
2023/05/18 11:58:09;;;;;;;6.32;2.20;;;;;;;;;;5067686;28;20544;-61
2023/05/18 12:00:36;;;;;;;6.65;2.45;;;;;;;;;;5067889;28;20508;-61
2023/05/18 12:03:02;;;;;;;7.90;2.05;;;;;;;;;;5067526;28;20037;-61
2023/05/18 12:05:34;;;;;;;7.90;2.13;;;;;;;;;;5067579;28;20048;-61
2023/05/18 12:08:00;;;;;;;8.90;2.60;;;;;;;;;;5070458;28;20059;-61
2023/05/18 12:10:26;;;;;;;6.32;2.38;;;;;;;;;;5071443;28;20059;-61
2023/05/18 12:12:53;;;;;;;10.23;2.08;;;;;;;;;;5071581;28;20406;-62
2023/05/18 12:15:22;;;;;;;6.32;2.17;;;;;;;;;;5071486;28;20056;-62
2023/05/18 12:17:49;;;;;;;8.63;2.10;;;;;;;;;;5071623;28;20045;-61
2023/05/18 12:20:19;;;;;;;8.45;2.03;;;;;;;;;;5070597;28;20081;-61
2023/05/18 12:22:49;;;;;;;5.43;2.05;;;;;;;;;;5070066;28;20044;-61
2023/05/18 12:25:15;;;;;;;7.32;2.55;;;;;;;;;;5071016;28;20056;-61
2023/05/18 12:27:45;;;;;;;7.32;2.28;;;;;;;;;;5071181;28;20048;-61
2023/05/18 12:30:12;;;;;;;8.52;2.28;;;;;;;;;;5071453;28;20052;-61
2023/05/18 12:32:38;;;;;;;6.88;3.22;;;;;;;;;;5070386;28;20061;-61
2023/05/18 12:35:05;;;;;;;6.22;2.30;;;;;;;;;;5071058;28;20063;-62
2023/05/18 12:37:31;;;;;;;8.05;2.55;;;;;;;;;;5070790;28;20059;-61
2023/05/18 12:39:58;;;;;;;6.15;2.60;;;;;;;;;;5070839;28;20351;-61
2023/05/18 12:42:24;;;;;;;7.80;2.22;;;;;;;;;;5070897;28;20067;-61
2023/05/18 12:44:50;;;;;;;5.57;2.50;;;;;;;;;;5069029;28;20513;-61
2023/05/18 12:47:16;;;;;;;7.32;2.33;;;;;;;;;;5070501;28;20105;-61
2023/05/18 12:49:43;;;;;;;7.32;2.60;;;;;;;;;;5070931;28;20051;-62
2023/05/18 12:52:13;;;;;;;9.13;2.42;;;;;;;;;;5070637;28;20044;-62
2023/05/18 12:54:59;;;;;;;7.03;2.75;;;;;;;;;;5070034;28;20049;-61
2023/05/18 12:57:26;;;;;;;7.43;2.50;;;;;;;;;;5070709;28;20502;-61
2023/05/18 12:59:55;;;;;;;6.18;2.20;;;;;;;;;;5070749;28;20041;-62
2023/05/18 13:02:28;;;;;;;8.90;2.92;;;;;;;;;;5070712;28;20040;-61
2023/05/18 13:05:07;;;;;;;6.05;2.13;;;;;;;;;;5070350;28;20052;-61
2023/05/18 13:07:41;;;;;;;5.43;2.22;;;;;;;;;;5070607;28;20048;-61
2023/05/18 13:10:17;;;;;;;4.88;2.33;;;;;;;;;;5070294;28;20105;-61
2023/05/18 13:12:43;;;;;;;9.95;3.05;;;;;;;;;;5070251;28;20087;-61
2023/05/18 13:15:10;;;;;;;5.38;2.30;;;;;;;;;;5070511;28;20072;-61
2023/05/18 13:17:36;;;;;;;6.60;2.42;;;;;;;;;;5069476;28;20044;-61
2023/05/18 13:20:04;;;;;;;4.28;1.88;;;;;;;;;;5069661;28;20048;-61
2023/05/18 13:22:30;;;;;;;3.53;1.85;;;;;;;;;;5070219;28;20463;-61
2023/05/18 13:24:56;;;;;;;5.95;2.10;;;;;;;;;;5070276;28;20502;-61
2023/05/18 13:27:22;;;;;;;6.07;2.58;;;;;;;;;;5069829;28;20056;-61
2023/05/18 13:29:48;;;;;;;5.72;2.10;;;;;;;;;;5069721;28;20045;-61
2023/05/18 13:32:15;;;;;;;6.93;2.17;;;;;;;;;;5070165;28;20053;-61
2023/05/18 13:34:41;;;;;;;5.25;1.90;;;;;;;;;;5070165;28;20462;-61
2023/05/18 13:37:07;;;;;;;6.65;2.63;;;;;;;;;;5069683;28;20044;-61
2023/05/18 13:39:33;;;;;;;4.55;2.17;;;;;;;;;;5069734;28;20041;-61
2023/05/18 13:42:01;;;;;;;5.47;2.05;;;;;;;;;;5069445;28;20472;-61
2023/05/18 13:44:27;;;;;;;5.95;2.40;;;;;;;;;;5069714;28;20078;-61
2023/05/18 13:46:53;;;;;;;5.60;2.58;;;;;;;;;;5069683;28;20525;-61
2023/05/18 13:49:20;;;;;;;6.85;2.65;;;;;;;;;;5069101;28;20083;-61
2023/05/18 13:51:46;;;;;;;7.00;2.42;;;;;;;;;;5069770;28;20044;-61
2023/05/18 13:54:12;;;;;;;8.70;2.30;;;;;;;;;;5069667;28;20052;-61
2023/05/18 13:56:38;;;;;;;9.45;2.20;;;;;;;;;;5069569;28;20131;-61
2023/05/18 13:59:05;;;;;;;6.80;2.38;;;;;;;;;;5068986;28;20119;-61
2023/05/18 14:01:31;;;;;;;9.57;2.88;;;;;;;;;;5069419;28;20045;-61
2023/05/18 14:03:57;;;;;;;7.28;1.65;;;;;;;;;;5069318;28;20051;-61
2023/05/18 14:06:25;;;;;;;6.13;2.00;;;;;;;;;;5069366;28;20040;-61
2023/05/18 14:08:52;;;;;;;5.97;2.33;;;;;;;;;;5069248;28;20051;-61
2023/05/18 14:11:18;;;;;;;7.55;2.60;;;;;;;;;;5069254;28;20052;-62
2023/05/18 14:13:44;;;;;;;8.73;2.25;;;;;;;;;;5068749;28;20048;-61
2023/05/18 14:16:10;;;;;;;7.20;2.88;;;;;;;;;;5069029;28;20184;-61
2023/05/18 14:18:36;;;;;;;7.97;2.47;;;;;;;;;;5069019;28;20045;-62
2023/05/18 14:21:02;;;;;;;6.47;2.08;;;;;;;;;;5069095;28;20070;-60
2023/05/18 14:23:29;;;;;;;6.95;2.28;;;;;;;;;;5068738;28;20052;-62
2023/05/18 14:25:55;;;;;;;6.97;2.50;;;;;;;;;;5068440;28;20044;-61
2023/05/18 14:28:21;;;;;;;6.68;2.50;;;;;;;;;;5069095;28;20040;-61
2023/05/18 14:30:47;;;;;;;6.07;2.30;;;;;;;;;;5068667;28;20112;-61
2023/05/18 14:33:13;;;;;;;6.80;2.35;;;;;;;;;;5068667;28;20423;-61
2023/05/18 14:35:39;;;;;;;7.28;2.40;;;;;;;;;;5068340;28;20048;-61
2023/05/18 14:38:05;;;;;;;7.45;2.20;;;;;;;;;;5068713;28;20043;-61